Time;durP1;ratioP1;P1;durP2;ratioP2;P2;SDS_P1;SDS_P2;PMS_P1;PMS_P2;Temp;Humidity;BMP_temperature;BMP_pressure;BME280_temperature;BME280_humidity;BME280_pressure;Samples;Min_cycle;Max_cycle;Signal;HPM_P1;HPM_P2
2022/10/11 00:00:41;;;;;;;8.00;1.87;;;;;;;;;;5055817;28;20025;-76
2022/10/11 00:03:07;;;;;;;15.57;2.27;;;;;;;;;;5062699;28;20107;-77
2022/10/11 00:05:34;;;;;;;9.10;2.07;;;;;;;;;;5061309;28;20400;-77
2022/10/11 00:08:00;;;;;;;16.90;2.70;;;;;;;;;;5055850;28;20049;-77
2022/10/11 00:10:26;;;;;;;10.77;2.37;;;;;;;;;;5055177;28;20044;-77
2022/10/11 00:12:52;;;;;;;7.40;2.37;;;;;;;;;;5058748;28;20032;-77
2022/10/11 00:15:20;;;;;;;7.03;1.93;;;;;;;;;;5075462;28;20035;-77
2022/10/11 00:17:46;;;;;;;5.17;1.73;;;;;;;;;;5059988;28;20040;-77
2022/10/11 00:20:12;;;;;;;7.97;2.30;;;;;;;;;;5048450;28;20041;-76
2022/10/11 00:22:38;;;;;;;14.63;2.60;;;;;;;;;;5056100;28;20036;-77
2022/10/11 00:25:05;;;;;;;13.37;3.03;;;;;;;;;;5055287;28;20025;-77
2022/10/11 00:27:31;;;;;;;8.33;2.10;;;;;;;;;;5067004;28;20126;-76
2022/10/11 00:29:57;;;;;;;8.60;2.23;;;;;;;;;;5058117;28;20052;-77
2022/10/11 00:32:23;;;;;;;12.03;2.50;;;;;;;;;;5056017;28;20021;-77
2022/10/11 00:34:49;;;;;;;12.00;2.03;;;;;;;;;;5069414;28;20028;-77
2022/10/11 00:37:18;;;;;;;6.57;1.83;;;;;;;;;;5054547;28;20103;-76
2022/10/11 00:39:46;;;;;;;6.27;1.67;;;;;;;;;;5054921;28;20029;-77
2022/10/11 00:42:13;;;;;;;12.07;2.00;;;;;;;;;;5055689;28;20036;-77
2022/10/11 00:44:40;;;;;;;12.43;1.80;;;;;;;;;;5067049;28;20056;-77
2022/10/11 00:47:08;;;;;;;9.77;1.77;;;;;;;;;;5052129;28;20025;-76
2022/10/11 00:49:34;;;;;;;7.43;1.97;;;;;;;;;;5046516;28;20480;-77
2022/10/11 00:52:02;;;;;;;11.00;2.63;;;;;;;;;;5055781;28;20108;-76
2022/10/11 00:54:31;;;;;;;8.07;1.97;;;;;;;;;;5050532;28;20442;-77
2022/10/11 00:56:59;;;;;;;8.70;2.67;;;;;;;;;;5056665;28;20079;-77
2022/10/11 00:59:27;;;;;;;13.33;2.50;;;;;;;;;;5055498;28;20393;-77
2022/10/11 01:01:55;;;;;;;8.60;2.03;;;;;;;;;;5055354;28;20335;-77
2022/10/11 01:04:21;;;;;;;16.37;2.93;;;;;;;;;;5057613;28;20032;-77
2022/10/11 01:06:52;;;;;;;6.57;2.00;;;;;;;;;;5054440;28;20025;-77
2022/10/11 01:09:21;;;;;;;9.07;1.97;;;;;;;;;;5055063;28;20029;-77
2022/10/11 01:11:48;;;;;;;10.73;2.40;;;;;;;;;;5041964;28;20025;-76
2022/10/11 01:14:25;;;;;;;9.33;2.60;;;;;;;;;;5057428;28;20048;-77
2022/10/11 01:16:59;;;;;;;8.50;2.37;;;;;;;;;;5055568;28;20031;-77
2022/10/11 01:19:44;;;;;;;8.13;1.90;;;;;;;;;;5054505;28;20442;-77
2022/10/11 01:22:13;;;;;;;7.80;2.30;;;;;;;;;;5060344;28;20107;-77
2022/10/11 01:24:39;;;;;;;10.27;1.80;;;;;;;;;;5054138;28;20029;-77
2022/10/11 01:27:24;;;;;;;8.07;2.00;;;;;;;;;;5046774;28;20038;-76
2022/10/11 01:30:09;;;;;;;7.53;2.00;;;;;;;;;;5035987;28;20037;-75
2022/10/11 01:33:00;;;;;;;10.37;2.60;;;;;;;;;;5043600;28;20091;-75
2022/10/11 01:35:35;;;;;;;11.27;2.03;;;;;;;;;;5052205;28;20851;-76
2022/10/11 01:38:12;;;;;;;4.37;1.50;;;;;;;;;;5041138;28;20055;-74
2022/10/11 01:40:52;;;;;;;6.47;1.97;;;;;;;;;;5040695;28;20029;-76
2022/10/11 01:43:22;;;;;;;7.43;2.37;;;;;;;;;;5042533;28;20040;-75
2022/10/11 01:45:53;;;;;;;10.43;2.33;;;;;;;;;;5042054;28;20167;-76
2022/10/11 01:48:19;;;;;;;10.07;2.37;;;;;;;;;;5044044;28;20032;-77
2022/10/11 01:50:45;;;;;;;8.70;3.90;;;;;;;;;;5043360;28;20029;-76
2022/10/11 01:53:20;;;;;;;11.97;3.80;;;;;;;;;;5045331;28;20029;-76
2022/10/11 01:55:49;;;;;;;6.73;2.23;;;;;;;;;;5043018;28;20037;-76
2022/10/11 01:58:18;;;;;;;13.23;1.70;;;;;;;;;;5040655;28;20025;-77
2022/10/11 02:00:53;;;;;;;7.67;2.20;;;;;;;;;;5043006;28;20029;-76
2022/10/11 02:03:29;;;;;;;7.57;2.03;;;;;;;;;;5044745;28;20029;-74
2022/10/11 02:06:14;;;;;;;12.50;2.20;;;;;;;;;;5040692;28;20033;-77
2022/10/11 02:08:46;;;;;;;13.33;2.03;;;;;;;;;;5039615;28;20485;-77
2022/10/11 02:11:27;;;;;;;8.75;1.98;;;;;;;;;;5043063;28;20032;-77
2022/10/11 02:13:59;;;;;;;7.40;1.70;;;;;;;;;;5041849;28;20033;-78
2022/10/11 02:16:32;;;;;;;7.72;1.63;;;;;;;;;;5041789;28;20097;-76
2022/10/11 02:19:01;;;;;;;12.20;2.13;;;;;;;;;;5039966;28;20043;-77
2022/10/11 02:21:27;;;;;;;9.10;1.80;;;;;;;;;;5042704;28;20359;-77
2022/10/11 02:23:55;;;;;;;7.90;2.23;;;;;;;;;;5044423;28;20033;-76
2022/10/11 02:26:21;;;;;;;13.47;2.67;;;;;;;;;;5043059;28;20495;-76
2022/10/11 02:28:50;;;;;;;7.10;1.70;;;;;;;;;;5041400;28;20108;-77
2022/10/11 02:31:17;;;;;;;10.97;2.47;;;;;;;;;;5041274;28;20036;-76
2022/10/11 02:34:07;;;;;;;9.87;2.60;;;;;;;;;;5043338;28;20041;-75
2022/10/11 02:36:47;;;;;;;6.03;2.17;;;;;;;;;;5041799;28;20033;-77
2022/10/11 02:39:19;;;;;;;8.27;1.97;;;;;;;;;;5042677;28;20029;-77
2022/10/11 02:41:48;;;;;;;9.23;1.77;;;;;;;;;;5040373;28;20186;-77
2022/10/11 02:44:26;;;;;;;8.70;1.90;;;;;;;;;;5041909;28;20457;-77
2022/10/11 02:46:53;;;;;;;5.20;1.80;;;;;;;;;;5041613;28;20358;-76
2022/10/11 02:49:20;;;;;;;12.13;2.10;;;;;;;;;;5043684;28;20029;-77
2022/10/11 02:51:46;;;;;;;6.30;1.70;;;;;;;;;;5040471;28;20460;-75
2022/10/11 02:54:12;;;;;;;10.07;2.70;;;;;;;;;;5041877;28;20025;-77
2022/10/11 02:56:41;;;;;;;12.13;2.23;;;;;;;;;;5041231;28;20021;-77
2022/10/11 02:59:07;;;;;;;14.47;3.37;;;;;;;;;;5045938;28;20883;-77
2022/10/11 03:01:33;;;;;;;6.67;2.50;;;;;;;;;;5043700;28;20048;-77
2022/10/11 03:03:59;;;;;;;5.03;2.03;;;;;;;;;;5045957;28;20036;-77
2022/10/11 03:06:25;;;;;;;9.03;2.07;;;;;;;;;;5048238;28;20034;-77
2022/10/11 03:08:51;;;;;;;11.47;3.20;;;;;;;;;;5044880;28;20037;-76
2022/10/11 03:11:19;;;;;;;12.83;4.00;;;;;;;;;;5050266;28;20458;-77
2022/10/11 03:13:47;;;;;;;12.10;2.70;;;;;;;;;;5043827;28;20025;-76
2022/10/11 03:16:13;;;;;;;11.53;2.70;;;;;;;;;;5046769;28;20029;-77
2022/10/11 03:18:39;;;;;;;8.23;2.30;;;;;;;;;;5049464;28;20051;-77
2022/10/11 03:21:05;;;;;;;8.57;2.30;;;;;;;;;;5048857;28;20048;-75
2022/10/11 03:23:34;;;;;;;11.57;2.53;;;;;;;;;;5048636;28;20033;-77
2022/10/11 03:26:02;;;;;;;10.83;2.60;;;;;;;;;;5066019;28;20025;-76
2022/10/11 03:28:28;;;;;;;6.00;2.33;;;;;;;;;;5048363;28;20067;-77
2022/10/11 03:30:54;;;;;;;8.33;2.30;;;;;;;;;;5043927;28;20071;-77
2022/10/11 03:33:20;;;;;;;6.53;2.43;;;;;;;;;;5045303;28;20068;-78
2022/10/11 03:35:46;;;;;;;13.07;3.07;;;;;;;;;;5044139;28;20133;-76
2022/10/11 03:38:13;;;;;;;13.03;2.30;;;;;;;;;;5057222;28;20064;-77
2022/10/11 03:40:40;;;;;;;10.53;2.27;;;;;;;;;;5065401;28;20036;-77
2022/10/11 03:43:06;;;;;;;10.73;2.47;;;;;;;;;;5061441;28;20036;-77
2022/10/11 03:45:32;;;;;;;9.37;2.40;;;;;;;;;;5055979;28;20025;-77
2022/10/11 03:47:58;;;;;;;6.53;2.67;;;;;;;;;;5055811;28;20029;-77
2022/10/11 03:50:27;;;;;;;13.83;3.23;;;;;;;;;;5068270;28;20501;-77
2022/10/11 03:52:53;;;;;;;6.67;2.10;;;;;;;;;;5056303;28;20068;-78
2022/10/11 03:55:21;;;;;;;9.23;2.80;;;;;;;;;;5060030;28;20040;-77
2022/10/11 03:57:50;;;;;;;11.30;2.57;;;;;;;;;;5076074;28;20028;-78
2022/10/11 04:00:16;;;;;;;9.33;2.47;;;;;;;;;;5060265;28;20029;-77
2022/10/11 04:02:42;;;;;;;13.50;3.30;;;;;;;;;;5056033;28;20107;-77
2022/10/11 04:05:11;;;;;;;17.23;3.90;;;;;;;;;;5057139;28;20330;-77
2022/10/11 04:07:37;;;;;;;12.90;2.60;;;;;;;;;;5045216;28;20434;-77
2022/10/11 04:10:03;;;;;;;14.90;3.03;;;;;;;;;;5056736;28;20121;-78
2022/10/11 04:12:34;;;;;;;14.57;4.20;;;;;;;;;;5069750;28;20037;-78
2022/10/11 04:15:00;;;;;;;9.27;2.60;;;;;;;;;;5057668;28;20464;-77
2022/10/11 04:17:26;;;;;;;12.33;2.93;;;;;;;;;;5070038;28;20440;-78
2022/10/11 04:19:52;;;;;;;6.17;2.50;;;;;;;;;;5058491;28;20036;-77
2022/10/11 04:22:18;;;;;;;13.70;3.50;;;;;;;;;;5055277;28;20086;-78
2022/10/11 04:24:44;;;;;;;10.23;3.80;;;;;;;;;;5056246;28;20021;-77
2022/10/11 04:27:10;;;;;;;8.80;3.53;;;;;;;;;;5055701;28;20029;-76
2022/10/11 04:29:36;;;;;;;14.33;3.67;;;;;;;;;;5061458;28;20340;-77
2022/10/11 04:32:02;;;;;;;12.83;3.33;;;;;;;;;;5063756;28;20025;-75
2022/10/11 04:34:28;;;;;;;6.37;3.03;;;;;;;;;;5058575;28;20036;-75
2022/10/11 04:36:54;;;;;;;15.83;4.33;;;;;;;;;;5066387;28;20052;-78
2022/10/11 04:39:20;;;;;;;10.33;3.07;;;;;;;;;;5055022;28;20032;-76
2022/10/11 04:41:46;;;;;;;12.17;2.87;;;;;;;;;;5062594;28;20020;-77
2022/10/11 04:44:12;;;;;;;10.80;3.20;;;;;;;;;;5061372;28;20025;-77
2022/10/11 04:46:38;;;;;;;11.83;3.10;;;;;;;;;;5055193;28;20037;-76
2022/10/11 04:49:05;;;;;;;11.27;3.60;;;;;;;;;;5054679;28;20036;-77
2022/10/11 04:51:32;;;;;;;10.20;3.50;;;;;;;;;;5055818;28;20032;-77
2022/10/11 04:53:58;;;;;;;12.07;4.00;;;;;;;;;;5055804;28;20063;-77
2022/10/11 04:56:24;;;;;;;11.17;3.60;;;;;;;;;;5055544;28;20029;-77
2022/10/11 04:58:53;;;;;;;11.50;3.93;;;;;;;;;;5055459;28;20520;-77
2022/10/11 05:01:21;;;;;;;18.37;4.17;;;;;;;;;;5054841;28;20438;-77
2022/10/11 05:03:47;;;;;;;17.03;5.10;;;;;;;;;;5054488;28;20025;-76
2022/10/11 05:06:13;;;;;;;23.87;6.13;;;;;;;;;;5054308;28;20109;-77
2022/10/11 05:08:40;;;;;;;32.87;6.77;;;;;;;;;;5068650;28;20025;-77
2022/10/11 05:11:07;;;;;;;24.97;6.60;;;;;;;;;;5054442;28;20024;-77
2022/10/11 05:13:34;;;;;;;26.30;6.47;;;;;;;;;;5054341;28;20037;-77
2022/10/11 05:16:03;;;;;;;29.30;7.37;;;;;;;;;;5054318;28;20124;-77
2022/10/11 05:18:30;;;;;;;31.80;6.50;;;;;;;;;;5054446;28;20025;-77
2022/10/11 05:21:06;;;;;;;28.77;6.33;;;;;;;;;;5068463;28;20044;-77
2022/10/11 05:23:33;;;;;;;24.10;6.53;;;;;;;;;;5054242;28;20032;-77
2022/10/11 05:26:00;;;;;;;27.80;7.23;;;;;;;;;;5055098;28;20047;-77
2022/10/11 05:28:26;;;;;;;22.93;7.50;;;;;;;;;;5054644;28;20028;-77
2022/10/11 05:30:52;;;;;;;26.63;6.30;;;;;;;;;;5068699;28;20067;-77
2022/10/11 05:33:19;;;;;;;22.00;7.37;;;;;;;;;;5054403;28;20399;-77
2022/10/11 05:35:45;;;;;;;24.17;7.40;;;;;;;;;;5054249;28;20025;-77
2022/10/11 05:38:11;;;;;;;29.60;8.47;;;;;;;;;;5060020;28;20036;-77
2022/10/11 05:40:40;;;;;;;30.60;6.70;;;;;;;;;;5062048;28;20079;-77
2022/10/11 05:43:07;;;;;;;40.40;8.03;;;;;;;;;;5055231;28;20055;-76
2022/10/11 05:45:35;;;;;;;38.80;8.53;;;;;;;;;;5057606;28;20389;-77
2022/10/11 05:48:01;;;;;;;49.63;10.63;;;;;;;;;;5051089;28;20040;-77
2022/10/11 05:50:27;;;;;;;37.33;10.03;;;;;;;;;;5053413;28;20025;-77
2022/10/11 05:52:53;;;;;;;38.50;13.30;;;;;;;;;;5058950;28;20514;-76
2022/10/11 05:55:21;;;;;;;39.90;10.07;;;;;;;;;;5063178;28;20017;-77
2022/10/11 05:57:47;;;;;;;38.23;10.07;;;;;;;;;;5054734;28;20025;-77
2022/10/11 06:00:16;;;;;;;38.70;10.43;;;;;;;;;;5055533;28;20029;-76
2022/10/11 06:02:42;;;;;;;37.10;9.87;;;;;;;;;;5054240;28;20026;-76
2022/10/11 06:05:11;;;;;;;34.87;9.60;;;;;;;;;;5054942;28;20356;-76
2022/10/11 06:07:37;;;;;;;29.70;8.83;;;;;;;;;;5042667;28;20078;-77
2022/10/11 06:10:03;;;;;;;26.90;8.93;;;;;;;;;;5062939;28;20033;-78
2022/10/11 06:12:30;;;;;;;31.67;11.33;;;;;;;;;;5053508;28;20072;-78
2022/10/11 06:14:56;;;;;;;30.70;9.90;;;;;;;;;;5044311;28;20030;-77
2022/10/11 06:17:22;;;;;;;37.70;11.03;;;;;;;;;;5066164;28;20041;-75
2022/10/11 06:19:49;;;;;;;32.50;10.87;;;;;;;;;;5060763;28;20043;-77
2022/10/11 06:22:15;;;;;;;29.77;9.77;;;;;;;;;;5057611;28;20104;-78
2022/10/11 06:24:41;;;;;;;41.33;9.67;;;;;;;;;;5054641;28;20033;-76
2022/10/11 06:27:07;;;;;;;32.43;10.10;;;;;;;;;;5054743;28;20036;-78
2022/10/11 06:29:33;;;;;;;33.23;10.57;;;;;;;;;;5055036;28;20071;-78
2022/10/11 06:31:59;;;;;;;32.53;9.43;;;;;;;;;;5063499;28;20051;-79
2022/10/11 06:34:25;;;;;;;30.80;9.57;;;;;;;;;;5058700;28;20021;-75
2022/10/11 06:36:51;;;;;;;34.07;9.57;;;;;;;;;;5057745;28;20505;-77
2022/10/11 06:39:17;;;;;;;29.23;9.80;;;;;;;;;;5059039;28;20040;-79
2022/10/11 06:41:43;;;;;;;28.33;11.67;;;;;;;;;;5048500;28;20111;-78
2022/10/11 06:44:10;;;;;;;21.93;10.30;;;;;;;;;;5057753;28;20029;-78
2022/10/11 06:46:36;;;;;;;24.30;10.80;;;;;;;;;;5058781;28;20432;-79
2022/10/11 06:49:02;;;;;;;26.17;9.80;;;;;;;;;;5058534;28;20032;-77
2022/10/11 06:51:31;;;;;;;34.60;11.27;;;;;;;;;;5058177;28;20029;-78
2022/10/11 06:53:58;;;;;;;48.93;14.43;;;;;;;;;;5057556;28;20032;-78
2022/10/11 06:56:25;;;;;;;46.27;11.77;;;;;;;;;;5057784;28;20049;-78
2022/10/11 06:58:52;;;;;;;66.60;16.80;;;;;;;;;;5054451;28;20064;-79
2022/10/11 07:01:20;;;;;;;53.67;15.20;;;;;;;;;;5062347;28;20461;-78
2022/10/11 07:03:46;;;;;;;58.67;14.43;;;;;;;;;;5060486;28;20040;-78
2022/10/11 07:06:14;;;;;;;56.13;16.80;;;;;;;;;;5069806;28;20028;-78
2022/10/11 07:08:40;;;;;;;56.63;15.97;;;;;;;;;;5053702;28;20025;-79
2022/10/11 07:11:10;;;;;;;50.30;15.50;;;;;;;;;;5064646;28;20034;-78
2022/10/11 07:13:37;;;;;;;62.17;17.77;;;;;;;;;;5063815;28;20047;-78
2022/10/11 07:16:04;;;;;;;72.10;19.03;;;;;;;;;;5057638;28;20098;-78
2022/10/11 07:18:30;;;;;;;67.07;19.50;;;;;;;;;;5091139;28;20044;-78
2022/10/11 07:20:56;;;;;;;61.73;18.30;;;;;;;;;;5057096;28;20032;-77
2022/10/11 07:23:25;;;;;;;58.93;17.97;;;;;;;;;;5057064;28;20365;-77
2022/10/11 07:25:53;;;;;;;64.70;21.30;;;;;;;;;;5059854;28;20055;-77
2022/10/11 07:28:22;;;;;;;58.17;21.53;;;;;;;;;;5058690;28;20025;-78
2022/10/11 07:30:50;;;;;;;69.27;24.50;;;;;;;;;;5057774;28;20029;-75
2022/10/11 07:33:17;;;;;;;65.90;23.97;;;;;;;;;;5056474;28;20024;-77
2022/10/11 07:35:43;;;;;;;60.03;23.10;;;;;;;;;;5064404;28;20429;-75
2022/10/11 07:38:11;;;;;;;59.40;23.97;;;;;;;;;;5060638;28;20036;-77
2022/10/11 07:40:45;;;;;;;66.77;24.63;;;;;;;;;;5084563;28;20477;-78
2022/10/11 07:43:14;;;;;;;63.57;24.17;;;;;;;;;;5066235;28;20603;-78
2022/10/11 07:45:41;;;;;;;74.83;25.60;;;;;;;;;;5051463;28;21059;-79
2022/10/11 07:48:07;;;;;;;64.13;24.37;;;;;;;;;;5067302;28;20110;-78
2022/10/11 07:50:33;;;;;;;61.13;26.97;;;;;;;;;;5061994;28;21495;-79
2022/10/11 07:52:59;;;;;;;74.17;30.20;;;;;;;;;;5046272;28;20064;-79
2022/10/11 07:55:28;;;;;;;60.77;29.07;;;;;;;;;;5046947;28;20461;-77
2022/10/11 07:57:54;;;;;;;61.73;28.30;;;;;;;;;;5046276;28;20095;-78
2022/10/11 08:00:21;;;;;;;58.50;28.90;;;;;;;;;;5046547;28;20619;-76
2022/10/11 08:02:47;;;;;;;62.30;28.57;;;;;;;;;;5044829;28;20025;-76
2022/10/11 08:05:13;;;;;;;65.40;29.87;;;;;;;;;;5044535;28;20033;-78
2022/10/11 08:07:39;;;;;;;70.00;31.07;;;;;;;;;;5061402;28;20455;-78
2022/10/11 08:10:06;;;;;;;75.83;32.40;;;;;;;;;;5045841;28;20109;-77
2022/10/11 08:12:32;;;;;;;71.63;35.23;;;;;;;;;;5046701;28;20056;-77
2022/10/11 08:14:58;;;;;;;67.60;32.07;;;;;;;;;;5057906;28;20028;-78
2022/10/11 08:17:24;;;;;;;65.30;30.83;;;;;;;;;;5063767;28;20074;-78
2022/10/11 08:19:50;;;;;;;71.50;32.23;;;;;;;;;;5063646;28;20033;-77
2022/10/11 08:22:17;;;;;;;76.47;36.23;;;;;;;;;;5063612;28;20032;-78
2022/10/11 08:24:43;;;;;;;71.20;33.57;;;;;;;;;;5048571;28;20026;-77
2022/10/11 08:27:09;;;;;;;63.70;30.93;;;;;;;;;;5053957;28;20033;-78
2022/10/11 08:29:35;;;;;;;62.43;29.57;;;;;;;;;;5059254;28;20029;-78
2022/10/11 08:32:04;;;;;;;64.43;30.00;;;;;;;;;;5050021;28;20029;-78
2022/10/11 08:34:30;;;;;;;55.83;26.13;;;;;;;;;;5044385;28;20037;-75
2022/10/11 08:36:56;;;;;;;52.63;26.47;;;;;;;;;;5047253;28;20029;-78
2022/10/11 08:39:22;;;;;;;53.47;24.17;;;;;;;;;;5058841;28;20030;-78
2022/10/11 08:41:51;;;;;;;47.37;23.63;;;;;;;;;;5047396;28;20040;-75
2022/10/11 08:44:39;;;;;;;43.80;22.30;;;;;;;;;;5062178;28;20037;-76
2022/10/11 08:47:17;;;;;;;46.77;22.23;;;;;;;;;;5066056;28;20028;-77
2022/10/11 08:49:44;;;;;;;47.83;23.30;;;;;;;;;;5080252;28;20029;-78
2022/10/11 08:52:13;;;;;;;49.47;21.43;;;;;;;;;;5047567;28;20029;-79
2022/10/11 08:54:43;;;;;;;46.30;20.13;;;;;;;;;;5043489;28;20037;-76
2022/10/11 08:57:12;;;;;;;38.73;20.03;;;;;;;;;;5044604;28;20033;-77
2022/10/11 08:59:57;;;;;;;42.73;19.67;;;;;;;;;;5048232;28;20091;-77
2022/10/11 09:02:35;;;;;;;36.33;18.70;;;;;;;;;;5048767;28;20021;-77
2022/10/11 09:05:02;;;;;;;36.47;17.50;;;;;;;;;;5060087;28;20108;-78
2022/10/11 09:07:34;;;;;;;39.07;17.50;;;;;;;;;;5047647;28;20365;-77
2022/10/11 09:10:06;;;;;;;39.40;19.00;;;;;;;;;;5046206;28;20029;-78
2022/10/11 09:12:58;;;;;;;37.60;18.93;;;;;;;;;;5060736;28;20037;-77
2022/10/11 09:15:34;;;;;;;43.30;20.10;;;;;;;;;;5018435;28;20027;-77
2022/10/11 09:18:00;;;;;;;43.67;20.00;;;;;;;;;;5042414;28;20119;-77
2022/10/11 09:20:29;;;;;;;41.60;18.00;;;;;;;;;;5044726;28;20050;-76
2022/10/11 09:22:59;;;;;;;37.57;17.07;;;;;;;;;;5043389;28;20032;-78
2022/10/11 09:25:31;;;;;;;38.57;18.47;;;;;;;;;;5044721;28;20029;-77
2022/10/11 09:28:07;;;;;;;40.60;18.27;;;;;;;;;;5044751;28;20025;-79
2022/10/11 09:30:33;;;;;;;40.77;18.83;;;;;;;;;;5044098;28;20049;-77
2022/10/11 09:33:05;;;;;;;43.70;19.47;;;;;;;;;;5043229;28;20026;-77
2022/10/11 09:35:31;;;;;;;;;;;;;;;;;;5049032;28;20034;-78
2022/10/11 09:38:03;;;;;;;35.20;18.13;;;;;;;;;;5063412;28;19924;-78
2022/10/11 09:40:36;;;;;;;34.17;18.98;;;;;;;;;;5063313;28;20441;-80
2022/10/11 09:43:02;;;;;;;45.15;22.13;;;;;;;;;;5062781;28;20044;-78
2022/10/11 09:45:28;;;;;;;46.43;21.17;;;;;;;;;;5057371;28;20017;-79
2022/10/11 09:47:55;;;;;;;51.77;22.87;;;;;;;;;;5055089;28;20037;-77
2022/10/11 09:50:24;;;;;;;44.63;20.47;;;;;;;;;;5067001;28;20045;-78
2022/10/11 09:52:55;;;;;;;48.03;21.50;;;;;;;;;;5056299;28;20448;-78
2022/10/11 09:55:35;;;;;;;42.53;21.03;;;;;;;;;;5054725;28;20115;-78
2022/10/11 09:58:02;;;;;;;45.57;19.97;;;;;;;;;;5052158;28;20021;-79
2022/10/11 10:00:31;;;;;;;44.97;21.87;;;;;;;;;;5061117;28;20452;-78
2022/10/11 10:02:58;;;;;;;53.20;21.63;;;;;;;;;;5046243;28;20439;-78
2022/10/11 10:05:32;;;;;;;53.70;22.93;;;;;;;;;;5056137;28;20033;-78
2022/10/11 10:08:06;;;;;;;50.60;22.30;;;;;;;;;;5056929;28;20433;-78
2022/10/11 10:10:37;;;;;;;44.22;21.80;;;;;;;;;;5064911;28;20056;-79
2022/10/11 10:13:04;;;;;;;50.40;21.90;;;;;;;;;;5058423;28;20112;-78
2022/10/11 10:15:30;;;;;;;50.75;21.95;;;;;;;;;;5060297;28;20206;-78
2022/10/11 10:17:57;;;;;;;46.20;21.48;;;;;;;;;;5053590;28;20110;-78
2022/10/11 10:20:24;;;;;;;47.20;20.50;;;;;;;;;;5066067;28;20112;-78
2022/10/11 10:22:51;;;;;;;49.00;24.73;;;;;;;;;;5059223;28;20071;-78
2022/10/11 10:25:22;;;;;;;49.13;20.80;;;;;;;;;;5058841;28;20025;-78
2022/10/11 10:28:01;;;;;;;41.73;20.23;;;;;;;;;;5057525;28;20033;-78
2022/10/11 10:30:27;;;;;;;49.33;22.97;;;;;;;;;;5057142;28;20036;-78
2022/10/11 10:32:53;;;;;;;44.78;21.88;;;;;;;;;;5057067;28;20120;-79
2022/10/11 10:35:28;;;;;;;43.33;22.00;;;;;;;;;;5057630;28;20426;-78
2022/10/11 10:38:32;;;;;;;47.80;20.97;;;;;;;;;;5057257;28;20468;-76
2022/10/11 10:41:01;;;;;;;43.43;20.07;;;;;;;;;;5019023;28;20132;-78
2022/10/11 10:43:29;;;;;;;48.83;20.33;;;;;;;;;;5050355;28;20044;-78
2022/10/11 10:46:07;;;;;;;43.33;20.97;;;;;;;;;;5043709;28;20030;-78
2022/10/11 10:48:37;;;;;;;44.47;18.10;;;;;;;;;;5044240;28;20025;-78
2022/10/11 10:51:08;;;;;;;40.40;20.07;;;;;;;;;;5056761;28;20032;-78
2022/10/11 10:53:40;;;;;;;48.00;22.35;;;;;;;;;;5053182;28;20033;-78
2022/10/11 10:56:11;;;;;;;50.80;20.80;;;;;;;;;;5062965;28;20025;-78
2022/10/11 10:58:53;;;;;;;52.63;20.70;;;;;;;;;;5072515;28;20351;-78
2022/10/11 11:01:24;;;;;;;47.33;19.40;;;;;;;;;;5059234;28;20447;-77
2022/10/11 11:03:58;;;;;;;51.93;20.97;;;13.10;99.90;;;;;;5072158;28;20025;-78
2022/10/11 11:06:30;;;;;;;50.67;19.40;;;13.30;99.90;;;;;;5069619;28;20047;-78
2022/10/11 11:09:22;;;;;;;45.47;19.40;;;13.20;99.90;;;;;;5064585;28;20024;-78
2022/10/11 11:12:16;;;;;;;48.75;18.33;;;13.20;99.90;;;;;;5063997;28;20622;-78
2022/10/11 11:15:08;;;;;;;44.90;19.67;;;13.30;99.90;;;;;;5067864;28;20037;-77
2022/10/11 11:17:40;;;;;;;44.17;20.33;;;13.50;99.90;;;;;;5065895;28;20037;-77
2022/10/11 11:20:46;;;;;;;36.03;15.70;;;13.40;99.90;;;;;;5045284;28;20030;-78
2022/10/11 11:23:37;;;;;;;34.93;14.53;;;13.60;99.90;;;;;;5060445;28;20116;-78
2022/10/11 11:26:35;;;;;;;35.83;14.43;;;13.70;99.90;;;;;;5066570;28;20017;-77
2022/10/11 11:29:28;;;;;;;37.17;15.57;;;14.10;99.90;;;;;;5045495;28;20059;-77
2022/10/11 11:32:08;;;;;;;35.17;14.43;;;14.50;99.90;;;;;;5057272;28;20025;-79
2022/10/11 11:34:51;;;;;;;38.30;13.20;;;14.70;99.90;;;;;;5062018;28;20046;-80
2022/10/11 11:37:31;;;;;;;27.67;12.63;;;15.00;99.90;;;;;;5064374;28;20116;-78
2022/10/11 11:40:03;;;;;;;32.17;14.00;;;15.30;99.90;;;;;;5059175;28;20075;-78
2022/10/11 11:42:40;;;;;;;31.48;13.70;;;15.40;99.90;;;;;;5056810;28;20025;-77
2022/10/11 11:45:28;;;;;;;27.73;11.85;;;15.50;99.90;;;;;;5054250;28;20025;-77
2022/10/11 11:48:07;;;;;;;29.98;12.88;;;15.60;99.90;;;;;;5057266;28;20029;-77
2022/10/11 11:50:39;;;;;;;25.53;11.60;;;15.30;99.90;;;;;;5058414;28;20041;-77
2022/10/11 11:53:12;;;;;;;26.25;10.75;;;15.00;99.90;;;;;;5068898;28;20027;-77
2022/10/11 11:56:09;;;;;;;19.53;8.70;;;14.80;99.90;;;;;;5047032;28;20457;-77
2022/10/11 11:58:47;;;;;;;29.73;9.53;;;14.60;99.90;;;;;;5061212;28;20025;-78
2022/10/11 12:01:22;;;;;;;18.87;6.67;;;14.80;99.90;;;;;;5056088;28;20032;-79
2022/10/11 12:03:52;;;;;;;20.47;6.37;;;14.70;99.90;;;;;;5056661;28;20056;-78
2022/10/11 12:06:27;;;;;;;9.17;3.97;;;14.70;99.90;;;;;;5065983;28;20034;-77
2022/10/11 12:09:06;;;;;;;25.00;7.10;;;14.80;99.90;;;;;;5058980;28;20017;-77
2022/10/11 12:11:43;;;;;;;16.63;6.77;;;14.90;99.90;;;;;;5067915;28;20021;-78
2022/10/11 12:14:32;;;;;;;14.97;6.23;;;15.10;99.90;;;;;;5058625;28;20125;-77
2022/10/11 12:17:12;;;;;;;11.50;4.22;;;15.20;99.90;;;;;;5067101;28;20047;-78
2022/10/11 12:19:41;;;;;;;12.20;3.92;;;15.10;99.90;;;;;;5047730;28;20033;-77
2022/10/11 12:22:23;;;;;;;14.90;3.83;;;15.40;99.90;;;;;;5058186;28;20025;-80
2022/10/11 12:25:00;;;;;;;5.90;2.53;;;15.70;99.90;;;;;;5037128;28;20017;-78
2022/10/11 12:27:37;;;;;;;11.05;3.25;;;15.90;99.90;;;;;;5065357;28;20031;-77
2022/10/11 12:30:06;;;;;;;8.80;3.53;;;15.90;99.90;;;;;;5062369;28;20036;-77
2022/10/11 12:32:35;;;;;;;14.38;4.60;;;15.60;99.90;;;;;;5058454;28;20032;-79
2022/10/11 12:35:29;;;;;;;6.55;3.05;;;15.50;99.90;;;;;;5058667;28;20025;-78
2022/10/11 12:38:11;;;;;;;8.60;3.53;;;15.60;99.90;;;;;;5075735;28;20110;-78
2022/10/11 12:40:41;;;;;;;11.57;3.83;;;16.10;99.90;;;;;;5069750;28;20032;-80
2022/10/11 12:43:31;;;;;;;8.75;4.68;;;16.10;99.90;;;;;;5063909;28;20070;-79
2022/10/11 12:46:28;;;;;;;15.93;4.93;;;15.40;99.90;;;;;;5058112;28;20017;-79
2022/10/11 12:49:16;;;;;;;8.98;4.55;;;15.40;99.90;;;;;;5047301;28;20017;-79
2022/10/11 12:51:52;;;;;;;11.98;4.10;;;15.30;99.90;;;;;;5061839;28;20100;-80
2022/10/11 12:54:38;;;;;;;19.40;5.63;;;15.50;99.90;;;;;;5045801;28;20024;-79
2022/10/11 12:57:07;;;;;;;10.20;3.45;;;16.10;99.90;;;;;;5050911;28;20445;-77
2022/10/11 12:59:36;;;;;;;15.00;4.38;;;17.10;99.90;;;;;;5055424;28;20027;-78
2022/10/11 13:02:02;;;;;;;10.35;3.25;;;18.10;99.90;;;;;;5057484;28;20028;-79
2022/10/11 13:04:32;;;;;;;9.75;3.85;;;18.70;96.80;;;;;;5064643;28;20369;-78
2022/10/11 13:07:03;;;;;;;6.35;3.15;;;18.50;95.90;;;;;;5068784;28;20124;-78
2022/10/11 13:09:35;;;;;;;8.80;2.95;;;18.50;97.00;;;;;;5063424;28;20031;-78
2022/10/11 13:12:35;;;;;;;8.90;3.35;;;19.90;92.70;;;;;;5055467;28;20311;-79
2022/10/11 13:15:07;;;;;;;6.13;2.95;;;20.70;85.50;;;;;;5063413;28;20037;-78
2022/10/11 13:17:37;;;;;;;11.18;3.28;;;20.20;86.60;;;;;;5053066;28;20466;-78
2022/10/11 13:20:16;;;;;;;10.07;3.38;;;19.70;85.10;;;;;;5063782;28;20032;-78
2022/10/11 13:22:44;;;;;;;8.65;2.80;;;20.10;88.70;;;;;;5070121;28;20092;-79
2022/10/11 13:25:18;;;;;;;5.88;2.47;;;19.60;87.40;;;;;;5063633;28;20021;-78
2022/10/11 13:27:46;;;;;;;4.53;1.88;;;18.70;90.50;;;;;;5068641;28;20021;-79
2022/10/11 13:30:29;;;;;;;12.25;3.08;;;17.80;90.20;;;;;;5054051;28;20029;-78
2022/10/11 13:32:59;;;;;;;10.52;2.50;;;17.30;92.40;;;;;;5054667;28;20035;-78
2022/10/11 13:35:34;;;;;;;6.30;2.60;;;17.40;92.80;;;;;;5036467;28;20041;-78
2022/10/11 13:38:00;;;;;;;9.73;2.53;;;17.10;92.70;;;;;;5079935;28;20464;-77
2022/10/11 13:40:27;;;;;;;10.63;3.00;;;16.90;93.80;;;;;;5050472;28;20087;-78
2022/10/11 13:42:56;;;;;;;11.30;3.05;;;18.00;92.60;;;;;;5048922;28;20028;-78
2022/10/11 13:45:29;;;;;;;6.70;2.40;;;19.20;91.10;;;;;;5040021;28;20017;-77
2022/10/11 13:47:55;;;;;;;8.98;3.42;;;19.90;86.40;;;;;;5044804;28;20457;-78
2022/10/11 13:50:33;;;;;;;8.45;2.85;;;20.30;85.80;;;;;;5047971;28;20044;-78
2022/10/11 13:53:20;;;;;;;9.30;2.40;;;20.90;82.60;;;;;;5043271;28;20051;-78
2022/10/11 13:55:54;;;;;;;9.80;3.38;;;22.40;78.90;;;;;;5049325;28;20187;-78
2022/10/11 13:58:34;;;;;;;6.55;3.20;;;23.00;73.90;;;;;;5076424;28;20029;-78
2022/10/11 14:01:04;;;;;;;6.43;2.72;;;22.60;74.00;;;;;;5049367;28;20063;-78
2022/10/11 14:03:52;;;;;;;12.35;3.25;;;22.40;73.90;;;;;;5041646;28;20112;-78
2022/10/11 14:06:18;;;;;;;14.73;3.80;;;22.30;72.70;;;;;;5042539;28;20017;-78
2022/10/11 14:08:46;;;;;;;13.80;4.43;;;22.10;73.40;;;;;;5049945;28;20025;-78
2022/10/11 14:11:13;;;;;;;7.18;3.00;;;22.80;72.30;;;;;;5044880;28;20057;-78
2022/10/11 14:13:39;;;;;;;11.35;3.40;;;23.60;70.40;;;;;;5048653;28;20143;-78
2022/10/11 14:16:09;;;;;;;9.32;2.80;;;23.30;70.40;;;;;;5047548;28;20108;-78
2022/10/11 14:18:41;;;;;;;8.02;3.08;;;;;;;;;;5058399;28;20064;-78
2022/10/11 14:21:20;;;;;;;14.05;3.50;;;;;;;;;;5046189;28;20021;-78